sensor_id;sensor_type;location;lat;lon;timestamp;P1;durP1;ratioP1;P2;durP2;ratioP2
359;SDS011;168;48.872;9.226;2022-12-22T00:02:01;2.90;;;2.70;;
359;SDS011;168;48.872;9.226;2022-12-22T00:04:48;3.73;;;3.43;;
359;SDS011;168;48.872;9.226;2022-12-22T00:07:33;3.20;;;2.87;;
359;SDS011;168;48.872;9.226;2022-12-22T00:10:18;3.83;;;3.00;;
359;SDS011;168;48.872;9.226;2022-12-22T00:13:03;3.37;;;3.07;;
359;SDS011;168;48.872;9.226;2022-12-22T00:15:48;3.20;;;3.00;;
359;SDS011;168;48.872;9.226;2022-12-22T00:18:35;3.40;;;3.20;;
359;SDS011;168;48.872;9.226;2022-12-22T00:21:20;3.90;;;3.50;;
359;SDS011;168;48.872;9.226;2022-12-22T00:24:04;2.93;;;2.73;;
359;SDS011;168;48.872;9.226;2022-12-22T00:26:49;3.27;;;2.97;;
359;SDS011;168;48.872;9.226;2022-12-22T00:29:35;4.37;;;3.20;;
359;SDS011;168;48.872;9.226;2022-12-22T00:32:24;3.20;;;3.00;;
359;SDS011;168;48.872;9.226;2022-12-22T00:35:18;3.07;;;2.77;;
359;SDS011;168;48.872;9.226;2022-12-22T00:38:10;2.87;;;2.67;;
359;SDS011;168;48.872;9.226;2022-12-22T00:40:57;2.83;;;2.60;;
359;SDS011;168;48.872;9.226;2022-12-22T00:43:42;2.80;;;2.60;;
359;SDS011;168;48.872;9.226;2022-12-22T00:46:27;3.20;;;2.90;;
359;SDS011;168;48.872;9.226;2022-12-22T00:49:12;3.33;;;3.03;;
359;SDS011;168;48.872;9.226;2022-12-22T00:51:58;2.83;;;2.47;;
359;SDS011;168;48.872;9.226;2022-12-22T00:54:43;3.03;;;2.80;;
359;SDS011;168;48.872;9.226;2022-12-22T00:57:28;2.67;;;2.47;;
359;SDS011;168;48.872;9.226;2022-12-22T01:00:14;2.83;;;2.63;;
359;SDS011;168;48.872;9.226;2022-12-22T01:02:59;3.30;;;3.10;;
359;SDS011;168;48.872;9.226;2022-12-22T01:05:44;4.30;;;3.07;;
359;SDS011;168;48.872;9.226;2022-12-22T01:08:31;4.63;;;2.80;;
359;SDS011;168;48.872;9.226;2022-12-22T01:11:17;3.93;;;3.03;;
359;SDS011;168;48.872;9.226;2022-12-22T01:14:04;3.40;;;3.10;;
359;SDS011;168;48.872;9.226;2022-12-22T01:16:52;3.63;;;2.80;;
359;SDS011;168;48.872;9.226;2022-12-22T01:19:36;3.60;;;2.57;;
359;SDS011;168;48.872;9.226;2022-12-22T01:22:21;2.50;;;2.20;;
359;SDS011;168;48.872;9.226;2022-12-22T01:25:11;3.20;;;1.90;;
359;SDS011;168;48.872;9.226;2022-12-22T01:27:58;2.00;;;1.90;;
359;SDS011;168;48.872;9.226;2022-12-22T01:30:44;2.30;;;1.57;;
359;SDS011;168;48.872;9.226;2022-12-22T01:33:29;1.80;;;1.70;;
359;SDS011;168;48.872;9.226;2022-12-22T01:36:14;2.40;;;1.60;;
359;SDS011;168;48.872;9.226;2022-12-22T01:38:59;1.80;;;1.70;;
359;SDS011;168;48.872;9.226;2022-12-22T01:41:45;3.27;;;1.73;;
359;SDS011;168;48.872;9.226;2022-12-22T01:44:32;3.50;;;1.97;;
359;SDS011;168;48.872;9.226;2022-12-22T01:50:23;1.53;;;1.43;;
359;SDS011;168;48.872;9.226;2022-12-22T01:53:13;1.67;;;1.40;;
359;SDS011;168;48.872;9.226;2022-12-22T01:56:01;3.30;;;1.87;;
359;SDS011;168;48.872;9.226;2022-12-22T01:58:50;1.77;;;1.67;;
359;SDS011;168;48.872;9.226;2022-12-22T02:01:37;2.17;;;2.00;;
359;SDS011;168;48.872;9.226;2022-12-22T02:04:23;1.57;;;1.47;;
359;SDS011;168;48.872;9.226;2022-12-22T02:07:14;1.50;;;1.40;;
359;SDS011;168;48.872;9.226;2022-12-22T02:10:11;2.03;;;1.77;;
359;SDS011;168;48.872;9.226;2022-12-22T02:13:06;1.70;;;1.60;;
359;SDS011;168;48.872;9.226;2022-12-22T02:16:00;1.60;;;1.50;;
359;SDS011;168;48.872;9.226;2022-12-22T02:18:53;2.20;;;1.70;;
359;SDS011;168;48.872;9.226;2022-12-22T02:21:46;2.50;;;1.60;;
359;SDS011;168;48.872;9.226;2022-12-22T02:24:40;3.50;;;1.90;;
359;SDS011;168;48.872;9.226;2022-12-22T02:27:31;1.27;;;1.17;;
359;SDS011;168;48.872;9.226;2022-12-22T02:30:20;1.60;;;1.50;;
359;SDS011;168;48.872;9.226;2022-12-22T02:33:05;1.67;;;1.57;;
359;SDS011;168;48.872;9.226;2022-12-22T02:35:53;1.80;;;1.63;;
359;SDS011;168;48.872;9.226;2022-12-22T02:38:46;2.30;;;1.50;;
359;SDS011;168;48.872;9.226;2022-12-22T02:41:43;1.53;;;1.43;;
359;SDS011;168;48.872;9.226;2022-12-22T02:44:37;1.60;;;1.50;;
359;SDS011;168;48.872;9.226;2022-12-22T02:47:28;2.10;;;1.93;;
359;SDS011;168;48.872;9.226;2022-12-22T02:50:19;1.60;;;1.50;;
359;SDS011;168;48.872;9.226;2022-12-22T02:53:08;2.10;;;1.70;;
359;SDS011;168;48.872;9.226;2022-12-22T02:55:56;2.20;;;1.20;;
359;SDS011;168;48.872;9.226;2022-12-22T02:58:43;1.53;;;1.43;;
359;SDS011;168;48.872;9.226;2022-12-22T03:01:29;2.60;;;1.50;;
359;SDS011;168;48.872;9.226;2022-12-22T03:04:15;1.33;;;1.20;;
359;SDS011;168;48.872;9.226;2022-12-22T03:06:59;1.40;;;1.40;;
359;SDS011;168;48.872;9.226;2022-12-22T03:09:44;1.37;;;1.27;;
359;SDS011;168;48.872;9.226;2022-12-22T03:12:28;1.87;;;1.50;;
359;SDS011;168;48.872;9.226;2022-12-22T03:15:13;1.60;;;1.50;;
359;SDS011;168;48.872;9.226;2022-12-22T03:18:03;2.87;;;2.10;;
359;SDS011;168;48.872;9.226;2022-12-22T03:20:49;1.30;;;1.20;;
359;SDS011;168;48.872;9.226;2022-12-22T03:23:35;1.60;;;1.50;;
359;SDS011;168;48.872;9.226;2022-12-22T03:26:20;1.43;;;1.33;;
359;SDS011;168;48.872;9.226;2022-12-22T03:28:48;1.50;;;1.40;;
359;SDS011;168;48.872;9.226;2022-12-22T03:31:16;1.83;;;1.67;;
359;SDS011;168;48.872;9.226;2022-12-22T03:33:44;1.57;;;1.47;;
359;SDS011;168;48.872;9.226;2022-12-22T03:36:12;1.53;;;1.43;;
359;SDS011;168;48.872;9.226;2022-12-22T03:38:39;1.33;;;1.30;;
359;SDS011;168;48.872;9.226;2022-12-22T03:41:06;1.37;;;1.27;;
359;SDS011;168;48.872;9.226;2022-12-22T03:43:54;1.23;;;1.23;;
359;SDS011;168;48.872;9.226;2022-12-22T03:46:40;1.60;;;1.50;;
359;SDS011;168;48.872;9.226;2022-12-22T03:49:08;1.60;;;1.50;;
359;SDS011;168;48.872;9.226;2022-12-22T03:51:37;1.87;;;1.43;;
359;SDS011;168;48.872;9.226;2022-12-22T03:54:07;1.10;;;1.00;;
359;SDS011;168;48.872;9.226;2022-12-22T03:56:35;1.30;;;1.20;;
359;SDS011;168;48.872;9.226;2022-12-22T03:59:02;1.23;;;1.20;;
359;SDS011;168;48.872;9.226;2022-12-22T04:01:31;1.13;;;1.13;;
359;SDS011;168;48.872;9.226;2022-12-22T04:03:59;3.93;;;1.17;;
359;SDS011;168;48.872;9.226;2022-12-22T04:06:28;2.57;;;1.20;;
359;SDS011;168;48.872;9.226;2022-12-22T04:08:55;2.87;;;1.47;;
359;SDS011;168;48.872;9.226;2022-12-22T04:11:22;2.87;;;1.77;;
359;SDS011;168;48.872;9.226;2022-12-22T04:14:07;1.10;;;1.10;;
359;SDS011;168;48.872;9.226;2022-12-22T04:16:34;1.70;;;1.30;;
359;SDS011;168;48.872;9.226;2022-12-22T04:19:02;2.00;;;0.90;;
359;SDS011;168;48.872;9.226;2022-12-22T04:21:32;1.20;;;1.00;;
359;SDS011;168;48.872;9.226;2022-12-22T04:24:00;1.50;;;1.30;;
359;SDS011;168;48.872;9.226;2022-12-22T04:26:27;1.13;;;1.10;;
359;SDS011;168;48.872;9.226;2022-12-22T04:28:55;1.93;;;1.33;;
359;SDS011;168;48.872;9.226;2022-12-22T04:31:22;1.13;;;1.03;;
359;SDS011;168;48.872;9.226;2022-12-22T04:33:50;1.47;;;1.00;;
359;SDS011;168;48.872;9.226;2022-12-22T04:36:18;2.00;;;1.10;;
359;SDS011;168;48.872;9.226;2022-12-22T04:38:47;1.57;;;1.20;;
359;SDS011;168;48.872;9.226;2022-12-22T04:41:14;0.90;;;0.90;;
359;SDS011;168;48.872;9.226;2022-12-22T04:43:41;0.83;;;0.83;;
359;SDS011;168;48.872;9.226;2022-12-22T04:46:09;1.13;;;1.00;;
359;SDS011;168;48.872;9.226;2022-12-22T04:48:36;2.60;;;0.87;;
359;SDS011;168;48.872;9.226;2022-12-22T04:51:04;1.03;;;0.97;;
359;SDS011;168;48.872;9.226;2022-12-22T04:53:31;2.40;;;0.93;;
359;SDS011;168;48.872;9.226;2022-12-22T04:56:01;1.10;;;1.00;;
359;SDS011;168;48.872;9.226;2022-12-22T04:58:29;1.00;;;0.90;;
359;SDS011;168;48.872;9.226;2022-12-22T05:01:06;0.90;;;0.90;;
359;SDS011;168;48.872;9.226;2022-12-22T05:03:34;1.13;;;1.03;;
359;SDS011;168;48.872;9.226;2022-12-22T05:06:02;1.17;;;1.00;;
359;SDS011;168;48.872;9.226;2022-12-22T05:08:30;0.83;;;0.83;;
359;SDS011;168;48.872;9.226;2022-12-22T05:10:57;1.23;;;0.97;;
359;SDS011;168;48.872;9.226;2022-12-22T05:13:28;3.07;;;1.10;;
359;SDS011;168;48.872;9.226;2022-12-22T05:16:01;2.83;;;0.97;;
359;SDS011;168;48.872;9.226;2022-12-22T05:18:30;0.87;;;0.87;;
359;SDS011;168;48.872;9.226;2022-12-22T05:21:00;1.83;;;1.00;;
359;SDS011;168;48.872;9.226;2022-12-22T05:23:29;1.10;;;1.00;;
359;SDS011;168;48.872;9.226;2022-12-22T05:25:56;1.70;;;1.13;;
359;SDS011;168;48.872;9.226;2022-12-22T05:28:24;1.33;;;1.23;;
359;SDS011;168;48.872;9.226;2022-12-22T05:30:53;1.30;;;1.03;;
359;SDS011;168;48.872;9.226;2022-12-22T05:33:21;2.53;;;1.07;;
359;SDS011;168;48.872;9.226;2022-12-22T05:35:48;1.60;;;1.50;;
359;SDS011;168;48.872;9.226;2022-12-22T05:38:15;1.77;;;1.20;;
359;SDS011;168;48.872;9.226;2022-12-22T05:40:43;1.47;;;1.37;;
359;SDS011;168;48.872;9.226;2022-12-22T05:43:10;2.20;;;0.93;;
359;SDS011;168;48.872;9.226;2022-12-22T05:45:38;1.63;;;1.07;;
359;SDS011;168;48.872;9.226;2022-12-22T05:48:07;1.83;;;1.00;;
359;SDS011;168;48.872;9.226;2022-12-22T05:50:34;3.83;;;1.30;;
359;SDS011;168;48.872;9.226;2022-12-22T05:53:02;1.20;;;1.10;;
359;SDS011;168;48.872;9.226;2022-12-22T05:55:30;1.73;;;1.00;;
359;SDS011;168;48.872;9.226;2022-12-22T05:57:57;2.70;;;1.37;;
359;SDS011;168;48.872;9.226;2022-12-22T06:00:26;2.10;;;1.10;;
359;SDS011;168;48.872;9.226;2022-12-22T06:02:56;2.33;;;1.47;;
359;SDS011;168;48.872;9.226;2022-12-22T06:05:25;1.17;;;1.07;;
359;SDS011;168;48.872;9.226;2022-12-22T06:07:53;1.63;;;1.20;;
359;SDS011;168;48.872;9.226;2022-12-22T06:10:20;2.87;;;1.60;;
359;SDS011;168;48.872;9.226;2022-12-22T06:12:48;2.30;;;1.33;;
359;SDS011;168;48.872;9.226;2022-12-22T06:15:18;3.27;;;1.30;;
359;SDS011;168;48.872;9.226;2022-12-22T06:17:55;2.20;;;1.47;;
359;SDS011;168;48.872;9.226;2022-12-22T06:20:23;3.73;;;1.57;;
359;SDS011;168;48.872;9.226;2022-12-22T06:22:52;2.07;;;1.50;;
359;SDS011;168;48.872;9.226;2022-12-22T06:25:19;2.93;;;1.20;;
359;SDS011;168;48.872;9.226;2022-12-22T06:28:00;2.70;;;1.60;;
359;SDS011;168;48.872;9.226;2022-12-22T06:30:28;5.97;;;2.20;;
359;SDS011;168;48.872;9.226;2022-12-22T06:32:56;3.67;;;2.00;;
359;SDS011;168;48.872;9.226;2022-12-22T06:35:28;3.37;;;1.60;;
359;SDS011;168;48.872;9.226;2022-12-22T06:37:57;2.40;;;1.13;;
359;SDS011;168;48.872;9.226;2022-12-22T06:40:25;3.83;;;1.90;;
359;SDS011;168;48.872;9.226;2022-12-22T06:42:52;2.13;;;1.23;;
359;SDS011;168;48.872;9.226;2022-12-22T06:45:33;2.50;;;1.43;;
359;SDS011;168;48.872;9.226;2022-12-22T06:48:02;3.43;;;1.70;;
359;SDS011;168;48.872;9.226;2022-12-22T06:50:30;1.40;;;1.30;;
359;SDS011;168;48.872;9.226;2022-12-22T06:53:03;4.00;;;1.77;;
359;SDS011;168;48.872;9.226;2022-12-22T06:55:31;2.00;;;1.43;;
359;SDS011;168;48.872;9.226;2022-12-22T06:57:59;3.17;;;1.73;;
359;SDS011;168;48.872;9.226;2022-12-22T07:00:28;6.43;;;1.83;;
359;SDS011;168;48.872;9.226;2022-12-22T07:02:55;3.27;;;1.53;;
359;SDS011;168;48.872;9.226;2022-12-22T07:05:23;3.50;;;2.00;;
359;SDS011;168;48.872;9.226;2022-12-22T07:07:51;2.60;;;1.97;;
359;SDS011;168;48.872;9.226;2022-12-22T07:10:33;3.50;;;1.60;;
359;SDS011;168;48.872;9.226;2022-12-22T07:13:25;3.87;;;2.00;;
359;SDS011;168;48.872;9.226;2022-12-22T07:15:54;4.63;;;2.10;;
359;SDS011;168;48.872;9.226;2022-12-22T07:18:21;4.27;;;2.23;;
359;SDS011;168;48.872;9.226;2022-12-22T07:20:49;4.73;;;1.87;;
359;SDS011;168;48.872;9.226;2022-12-22T07:23:19;4.40;;;1.60;;
359;SDS011;168;48.872;9.226;2022-12-22T07:29:49;6.40;;;1.90;;
359;SDS011;168;48.872;9.226;2022-12-22T07:32:17;6.20;;;2.10;;
359;SDS011;168;48.872;9.226;2022-12-22T07:34:44;10.50;;;1.90;;
359;SDS011;168;48.872;9.226;2022-12-22T07:37:12;6.20;;;2.00;;
359;SDS011;168;48.872;9.226;2022-12-22T07:39:39;2.80;;;1.77;;
359;SDS011;168;48.872;9.226;2022-12-22T07:42:07;3.93;;;2.30;;
359;SDS011;168;48.872;9.226;2022-12-22T07:44:56;4.90;;;1.70;;
359;SDS011;168;48.872;9.226;2022-12-22T07:47:23;4.40;;;2.00;;
359;SDS011;168;48.872;9.226;2022-12-22T07:49:51;4.80;;;2.03;;
359;SDS011;168;48.872;9.226;2022-12-22T07:52:36;4.00;;;2.13;;
359;SDS011;168;48.872;9.226;2022-12-22T07:55:04;4.40;;;2.50;;
359;SDS011;168;48.872;9.226;2022-12-22T07:57:32;5.43;;;1.73;;
359;SDS011;168;48.872;9.226;2022-12-22T08:00:02;5.20;;;1.70;;
359;SDS011;168;48.872;9.226;2022-12-22T08:02:30;5.97;;;2.60;;
359;SDS011;168;48.872;9.226;2022-12-22T08:04:58;5.37;;;2.20;;
359;SDS011;168;48.872;9.226;2022-12-22T08:07:25;6.97;;;2.07;;
359;SDS011;168;48.872;9.226;2022-12-22T08:09:52;2.23;;;1.63;;
359;SDS011;168;48.872;9.226;2022-12-22T08:12:20;2.00;;;1.80;;
359;SDS011;168;48.872;9.226;2022-12-22T08:14:47;6.40;;;2.07;;
359;SDS011;168;48.872;9.226;2022-12-22T08:17:16;3.47;;;1.40;;
359;SDS011;168;48.872;9.226;2022-12-22T08:19:44;3.13;;;1.60;;
359;SDS011;168;48.872;9.226;2022-12-22T08:23:02;4.13;;;1.37;;
359;SDS011;168;48.872;9.226;2022-12-22T08:25:29;6.43;;;1.90;;
359;SDS011;168;48.872;9.226;2022-12-22T08:27:59;2.93;;;1.43;;
359;SDS011;168;48.872;9.226;2022-12-22T08:30:27;3.37;;;1.80;;
359;SDS011;168;48.872;9.226;2022-12-22T08:36:01;2.80;;;1.17;;
359;SDS011;168;48.872;9.226;2022-12-22T08:38:29;5.23;;;1.77;;
359;SDS011;168;48.872;9.226;2022-12-22T08:40:57;6.63;;;2.57;;
359;SDS011;168;48.872;9.226;2022-12-22T08:43:25;3.60;;;1.90;;
359;SDS011;168;48.872;9.226;2022-12-22T08:45:53;4.80;;;1.80;;
359;SDS011;168;48.872;9.226;2022-12-22T08:48:22;5.87;;;1.57;;
359;SDS011;168;48.872;9.226;2022-12-22T08:50:49;3.17;;;1.50;;
359;SDS011;168;48.872;9.226;2022-12-22T08:53:17;3.47;;;1.90;;
359;SDS011;168;48.872;9.226;2022-12-22T08:55:49;6.07;;;1.87;;
359;SDS011;168;48.872;9.226;2022-12-22T08:58:17;1.90;;;1.30;;
359;SDS011;168;48.872;9.226;2022-12-22T09:00:50;6.00;;;2.63;;
359;SDS011;168;48.872;9.226;2022-12-22T09:03:25;3.10;;;1.80;;
359;SDS011;168;48.872;9.226;2022-12-22T09:05:58;4.77;;;1.80;;
359;SDS011;168;48.872;9.226;2022-12-22T09:08:26;3.30;;;2.30;;
359;SDS011;168;48.872;9.226;2022-12-22T09:10:53;5.17;;;2.03;;
359;SDS011;168;48.872;9.226;2022-12-22T09:13:21;3.77;;;2.13;;
359;SDS011;168;48.872;9.226;2022-12-22T09:15:48;5.77;;;1.87;;
359;SDS011;168;48.872;9.226;2022-12-22T09:18:15;4.53;;;2.53;;
359;SDS011;168;48.872;9.226;2022-12-22T09:20:44;3.87;;;1.70;;
359;SDS011;168;48.872;9.226;2022-12-22T09:23:11;6.90;;;1.73;;
359;SDS011;168;48.872;9.226;2022-12-22T09:25:39;2.63;;;2.00;;
359;SDS011;168;48.872;9.226;2022-12-22T09:28:06;2.43;;;1.70;;
359;SDS011;168;48.872;9.226;2022-12-22T09:30:34;2.80;;;1.90;;
359;SDS011;168;48.872;9.226;2022-12-22T09:33:01;8.63;;;2.53;;
359;SDS011;168;48.872;9.226;2022-12-22T09:35:28;4.93;;;1.70;;
359;SDS011;168;48.872;9.226;2022-12-22T09:37:57;5.50;;;1.70;;
359;SDS011;168;48.872;9.226;2022-12-22T09:40:24;7.47;;;2.00;;
359;SDS011;168;48.872;9.226;2022-12-22T09:42:52;3.27;;;1.73;;
359;SDS011;168;48.872;9.226;2022-12-22T09:45:20;3.83;;;1.70;;
359;SDS011;168;48.872;9.226;2022-12-22T09:47:48;3.40;;;1.67;;
359;SDS011;168;48.872;9.226;2022-12-22T09:50:20;3.17;;;1.77;;
359;SDS011;168;48.872;9.226;2022-12-22T09:52:50;2.60;;;2.10;;
359;SDS011;168;48.872;9.226;2022-12-22T09:55:30;2.10;;;1.43;;
359;SDS011;168;48.872;9.226;2022-12-22T09:58:04;6.63;;;1.60;;
359;SDS011;168;48.872;9.226;2022-12-22T10:00:39;3.13;;;1.60;;
359;SDS011;168;48.872;9.226;2022-12-22T10:03:08;4.50;;;2.07;;
359;SDS011;168;48.872;9.226;2022-12-22T10:05:46;3.53;;;1.57;;
359;SDS011;168;48.872;9.226;2022-12-22T10:08:20;5.67;;;1.87;;
359;SDS011;168;48.872;9.226;2022-12-22T10:10:55;3.67;;;1.30;;
359;SDS011;168;48.872;9.226;2022-12-22T10:13:23;2.07;;;1.30;;
359;SDS011;168;48.872;9.226;2022-12-22T10:15:51;3.10;;;1.47;;
359;SDS011;168;48.872;9.226;2022-12-22T10:18:21;2.57;;;1.40;;
359;SDS011;168;48.872;9.226;2022-12-22T10:23:34;2.67;;;1.40;;
359;SDS011;168;48.872;9.226;2022-12-22T10:26:06;7.80;;;2.00;;
359;SDS011;168;48.872;9.226;2022-12-22T10:28:37;7.13;;;1.40;;
359;SDS011;168;48.872;9.226;2022-12-22T10:31:12;14.50;;;12.53;;
359;SDS011;168;48.872;9.226;2022-12-22T10:33:42;2.97;;;1.47;;
359;SDS011;168;48.872;9.226;2022-12-22T10:36:11;3.60;;;1.90;;
359;SDS011;168;48.872;9.226;2022-12-22T10:38:40;2.83;;;1.20;;
359;SDS011;168;48.872;9.226;2022-12-22T10:41:22;2.37;;;1.40;;
359;SDS011;168;48.872;9.226;2022-12-22T10:43:51;3.53;;;1.40;;
359;SDS011;168;48.872;9.226;2022-12-22T10:46:27;2.07;;;1.10;;
359;SDS011;168;48.872;9.226;2022-12-22T10:49:06;4.10;;;1.27;;
359;SDS011;168;48.872;9.226;2022-12-22T10:51:39;2.60;;;1.50;;
359;SDS011;168;48.872;9.226;2022-12-22T10:54:22;3.43;;;1.00;;
359;SDS011;168;48.872;9.226;2022-12-22T10:56:59;2.10;;;1.40;;
359;SDS011;168;48.872;9.226;2022-12-22T10:59:28;2.37;;;1.47;;
359;SDS011;168;48.872;9.226;2022-12-22T11:02:04;2.13;;;1.20;;
359;SDS011;168;48.872;9.226;2022-12-22T11:05:03;2.67;;;1.07;;
359;SDS011;168;48.872;9.226;2022-12-22T11:07:33;5.77;;;1.00;;
359;SDS011;168;48.872;9.226;2022-12-22T11:10:06;2.40;;;0.90;;
359;SDS011;168;48.872;9.226;2022-12-22T11:12:48;2.73;;;1.23;;
359;SDS011;168;48.872;9.226;2022-12-22T11:15:28;2.27;;;1.20;;
359;SDS011;168;48.872;9.226;2022-12-22T11:18:01;2.63;;;1.13;;
359;SDS011;168;48.872;9.226;2022-12-22T11:20:52;2.90;;;1.30;;
359;SDS011;168;48.872;9.226;2022-12-22T11:23:29;1.37;;;1.27;;
359;SDS011;168;48.872;9.226;2022-12-22T11:26:05;1.73;;;1.10;;
359;SDS011;168;48.872;9.226;2022-12-22T11:28:45;3.70;;;1.73;;
359;SDS011;168;48.872;9.226;2022-12-22T11:34:23;2.90;;;1.20;;
359;SDS011;168;48.872;9.226;2022-12-22T11:37:01;3.07;;;1.30;;
359;SDS011;168;48.872;9.226;2022-12-22T11:39:36;1.50;;;0.90;;
359;SDS011;168;48.872;9.226;2022-12-22T11:42:13;2.80;;;1.30;;
359;SDS011;168;48.872;9.226;2022-12-22T11:44:53;2.90;;;1.23;;
359;SDS011;168;48.872;9.226;2022-12-22T11:47:29;2.60;;;1.30;;
359;SDS011;168;48.872;9.226;2022-12-22T11:50:14;1.50;;;0.97;;
359;SDS011;168;48.872;9.226;2022-12-22T11:52:50;1.43;;;1.03;;
359;SDS011;168;48.872;9.226;2022-12-22T11:55:27;3.97;;;0.90;;
359;SDS011;168;48.872;9.226;2022-12-22T11:58:03;1.77;;;0.90;;
359;SDS011;168;48.872;9.226;2022-12-22T12:00:53;1.97;;;0.90;;
359;SDS011;168;48.872;9.226;2022-12-22T12:06:47;1.27;;;0.90;;
359;SDS011;168;48.872;9.226;2022-12-22T12:09:32;0.70;;;0.70;;
359;SDS011;168;48.872;9.226;2022-12-22T12:12:12;2.60;;;1.03;;
359;SDS011;168;48.872;9.226;2022-12-22T12:14:48;3.67;;;0.80;;
359;SDS011;168;48.872;9.226;2022-12-22T12:17:28;0.90;;;0.90;;
359;SDS011;168;48.872;9.226;2022-12-22T12:20:08;1.70;;;0.73;;
359;SDS011;168;48.872;9.226;2022-12-22T12:22:48;1.87;;;0.90;;
359;SDS011;168;48.872;9.226;2022-12-22T12:25:26;1.23;;;0.80;;
359;SDS011;168;48.872;9.226;2022-12-22T12:28:05;0.87;;;0.80;;
359;SDS011;168;48.872;9.226;2022-12-22T12:30:49;1.23;;;0.87;;
359;SDS011;168;48.872;9.226;2022-12-22T12:33:21;2.00;;;0.90;;
359;SDS011;168;48.872;9.226;2022-12-22T12:35:58;0.50;;;0.47;;
359;SDS011;168;48.872;9.226;2022-12-22T12:38:33;0.90;;;0.70;;
359;SDS011;168;48.872;9.226;2022-12-22T12:41:10;1.50;;;0.80;;
359;SDS011;168;48.872;9.226;2022-12-22T12:43:44;1.27;;;0.60;;
359;SDS011;168;48.872;9.226;2022-12-22T12:55:55;1.00;;;0.90;;
359;SDS011;168;48.872;9.226;2022-12-22T13:10:33;1.17;;;0.70;;
359;SDS011;168;48.872;9.226;2022-12-22T13:13:01;0.77;;;0.73;;
359;SDS011;168;48.872;9.226;2022-12-22T13:15:30;1.90;;;1.03;;
359;SDS011;168;48.872;9.226;2022-12-22T13:17:59;1.17;;;0.90;;
359;SDS011;168;48.872;9.226;2022-12-22T13:20:28;1.20;;;0.90;;
359;SDS011;168;48.872;9.226;2022-12-22T13:22:58;1.73;;;1.10;;
359;SDS011;168;48.872;9.226;2022-12-22T13:25:32;3.10;;;1.10;;
359;SDS011;168;48.872;9.226;2022-12-22T13:28:08;2.00;;;0.77;;
359;SDS011;168;48.872;9.226;2022-12-22T13:30:44;1.77;;;0.93;;
359;SDS011;168;48.872;9.226;2022-12-22T13:33:13;1.37;;;0.80;;
359;SDS011;168;48.872;9.226;2022-12-22T13:35:44;3.17;;;0.90;;
359;SDS011;168;48.872;9.226;2022-12-22T13:38:25;2.73;;;1.03;;
359;SDS011;168;48.872;9.226;2022-12-22T13:40:56;1.27;;;0.80;;
359;SDS011;168;48.872;9.226;2022-12-22T13:43:25;3.00;;;1.07;;
359;SDS011;168;48.872;9.226;2022-12-22T13:45:55;2.93;;;1.23;;
359;SDS011;168;48.872;9.226;2022-12-22T13:48:24;1.40;;;0.83;;
359;SDS011;168;48.872;9.226;2022-12-22T13:50:56;1.97;;;1.00;;
359;SDS011;168;48.872;9.226;2022-12-22T13:53:27;1.80;;;0.87;;
359;SDS011;168;48.872;9.226;2022-12-22T13:55:59;1.00;;;0.70;;
359;SDS011;168;48.872;9.226;2022-12-22T13:58:28;3.80;;;1.00;;
359;SDS011;168;48.872;9.226;2022-12-22T14:01:01;1.57;;;0.97;;
359;SDS011;168;48.872;9.226;2022-12-22T14:03:43;2.13;;;0.80;;
359;SDS011;168;48.872;9.226;2022-12-22T14:09:14;2.70;;;1.30;;
359;SDS011;168;48.872;9.226;2022-12-22T14:11:45;1.73;;;1.20;;
359;SDS011;168;48.872;9.226;2022-12-22T14:14:15;1.97;;;1.00;;
359;SDS011;168;48.872;9.226;2022-12-22T14:16:46;2.47;;;0.93;;
359;SDS011;168;48.872;9.226;2022-12-22T14:19:15;2.90;;;1.40;;
359;SDS011;168;48.872;9.226;2022-12-22T14:21:44;2.53;;;1.23;;
359;SDS011;168;48.872;9.226;2022-12-22T14:24:14;3.87;;;1.40;;
359;SDS011;168;48.872;9.226;2022-12-22T14:26:47;5.23;;;1.30;;
359;SDS011;168;48.872;9.226;2022-12-22T14:29:16;3.23;;;1.33;;
359;SDS011;168;48.872;9.226;2022-12-22T14:31:54;4.97;;;1.60;;
359;SDS011;168;48.872;9.226;2022-12-22T14:34:24;3.33;;;1.60;;
359;SDS011;168;48.872;9.226;2022-12-22T14:36:52;3.93;;;1.60;;
359;SDS011;168;48.872;9.226;2022-12-22T14:39:20;4.83;;;1.47;;
359;SDS011;168;48.872;9.226;2022-12-22T14:41:51;6.17;;;1.43;;
359;SDS011;168;48.872;9.226;2022-12-22T14:44:21;7.60;;;2.30;;
359;SDS011;168;48.872;9.226;2022-12-22T14:49:44;3.53;;;1.67;;
359;SDS011;168;48.872;9.226;2022-12-22T14:52:17;4.93;;;1.47;;
359;SDS011;168;48.872;9.226;2022-12-22T14:54:51;4.50;;;1.70;;
359;SDS011;168;48.872;9.226;2022-12-22T14:57:22;6.63;;;1.70;;
359;SDS011;168;48.872;9.226;2022-12-22T15:00:01;9.00;;;2.17;;
359;SDS011;168;48.872;9.226;2022-12-22T15:02:32;5.87;;;2.77;;
359;SDS011;168;48.872;9.226;2022-12-22T15:05:09;7.30;;;2.23;;
359;SDS011;168;48.872;9.226;2022-12-22T15:07:42;9.10;;;3.70;;
359;SDS011;168;48.872;9.226;2022-12-22T15:10:12;7.17;;;3.30;;
359;SDS011;168;48.872;9.226;2022-12-22T15:12:41;5.43;;;2.90;;
359;SDS011;168;48.872;9.226;2022-12-22T15:15:13;6.43;;;2.60;;
359;SDS011;168;48.872;9.226;2022-12-22T15:17:42;4.30;;;2.10;;
359;SDS011;168;48.872;9.226;2022-12-22T15:20:17;5.90;;;2.23;;
359;SDS011;168;48.872;9.226;2022-12-22T15:22:47;5.00;;;2.27;;
359;SDS011;168;48.872;9.226;2022-12-22T15:25:17;8.20;;;2.73;;
359;SDS011;168;48.872;9.226;2022-12-22T15:27:48;5.43;;;2.07;;
359;SDS011;168;48.872;9.226;2022-12-22T15:30:17;7.00;;;2.37;;
359;SDS011;168;48.872;9.226;2022-12-22T15:32:46;11.90;;;3.20;;
359;SDS011;168;48.872;9.226;2022-12-22T15:35:14;6.23;;;1.97;;
359;SDS011;168;48.872;9.226;2022-12-22T15:37:43;6.43;;;2.37;;
359;SDS011;168;48.872;9.226;2022-12-22T15:40:12;4.03;;;2.27;;
359;SDS011;168;48.872;9.226;2022-12-22T15:42:41;5.80;;;2.17;;
359;SDS011;168;48.872;9.226;2022-12-22T15:45:10;4.47;;;2.50;;
359;SDS011;168;48.872;9.226;2022-12-22T15:47:38;7.13;;;2.03;;
359;SDS011;168;48.872;9.226;2022-12-22T15:50:08;9.87;;;2.40;;
359;SDS011;168;48.872;9.226;2022-12-22T15:52:41;6.10;;;2.20;;
359;SDS011;168;48.872;9.226;2022-12-22T15:55:13;7.00;;;2.20;;
359;SDS011;168;48.872;9.226;2022-12-22T15:57:41;8.10;;;2.60;;
359;SDS011;168;48.872;9.226;2022-12-22T16:00:11;6.30;;;2.43;;
359;SDS011;168;48.872;9.226;2022-12-22T16:02:39;8.23;;;2.43;;
359;SDS011;168;48.872;9.226;2022-12-22T16:05:07;5.67;;;2.40;;
359;SDS011;168;48.872;9.226;2022-12-22T16:07:36;8.13;;;2.53;;
359;SDS011;168;48.872;9.226;2022-12-22T16:10:04;4.50;;;2.00;;
359;SDS011;168;48.872;9.226;2022-12-22T16:12:33;5.53;;;2.50;;
359;SDS011;168;48.872;9.226;2022-12-22T16:15:02;6.73;;;1.90;;
359;SDS011;168;48.872;9.226;2022-12-22T16:17:31;7.40;;;2.73;;
359;SDS011;168;48.872;9.226;2022-12-22T16:19:58;5.80;;;2.00;;
359;SDS011;168;48.872;9.226;2022-12-22T16:22:28;4.07;;;1.57;;
359;SDS011;168;48.872;9.226;2022-12-22T16:24:58;4.33;;;2.10;;
359;SDS011;168;48.872;9.226;2022-12-22T16:27:28;3.50;;;1.67;;
359;SDS011;168;48.872;9.226;2022-12-22T16:29:56;6.10;;;1.67;;
359;SDS011;168;48.872;9.226;2022-12-22T16:32:24;4.97;;;1.93;;
359;SDS011;168;48.872;9.226;2022-12-22T16:37:25;3.80;;;1.87;;
359;SDS011;168;48.872;9.226;2022-12-22T16:39:53;6.63;;;2.17;;
359;SDS011;168;48.872;9.226;2022-12-22T16:42:20;5.03;;;2.27;;
359;SDS011;168;48.872;9.226;2022-12-22T16:44:47;9.60;;;2.40;;
359;SDS011;168;48.872;9.226;2022-12-22T16:47:16;6.13;;;2.40;;
359;SDS011;168;48.872;9.226;2022-12-22T16:49:44;4.70;;;2.87;;
359;SDS011;168;48.872;9.226;2022-12-22T16:52:16;5.73;;;2.30;;
359;SDS011;168;48.872;9.226;2022-12-22T16:54:46;6.00;;;2.60;;
359;SDS011;168;48.872;9.226;2022-12-22T16:57:14;5.40;;;2.57;;
359;SDS011;168;48.872;9.226;2022-12-22T16:59:41;5.60;;;2.90;;
359;SDS011;168;48.872;9.226;2022-12-22T17:02:15;9.47;;;2.80;;
359;SDS011;168;48.872;9.226;2022-12-22T17:04:46;6.47;;;2.20;;
359;SDS011;168;48.872;9.226;2022-12-22T17:07:14;3.90;;;2.10;;
359;SDS011;168;48.872;9.226;2022-12-22T17:09:44;1.93;;;1.47;;
359;SDS011;168;48.872;9.226;2022-12-22T17:12:14;4.93;;;2.23;;
359;SDS011;168;48.872;9.226;2022-12-22T17:14:43;6.80;;;2.70;;
359;SDS011;168;48.872;9.226;2022-12-22T17:17:15;3.70;;;1.90;;
359;SDS011;168;48.872;9.226;2022-12-22T17:19:43;5.20;;;2.57;;